createdAt,value
2022-12-31T00:01:28.427Z,19.67
2022-12-31T00:04:31.617Z,19.20
2022-12-31T00:10:41.761Z,18.50
2022-12-31T00:13:46.565Z,18.00
2022-12-31T00:16:49.674Z,18.53
2022-12-31T00:19:52.770Z,18.53
2022-12-31T00:22:57.202Z,18.80
2022-12-31T00:26:04.413Z,18.23
2022-12-31T00:29:07.540Z,18.53
2022-12-31T00:32:10.638Z,19.30
2022-12-31T00:35:13.707Z,18.60
2022-12-31T00:38:18.148Z,18.40
2022-12-31T00:41:22.447Z,18.67
2022-12-31T00:44:25.524Z,20.00
2022-12-31T00:47:28.494Z,18.07
2022-12-31T00:50:31.568Z,19.47
2022-12-31T00:53:36.448Z,18.20
2022-12-31T00:56:39.417Z,18.83
2022-12-31T00:59:42.530Z,19.40
2022-12-31T01:02:45.676Z,17.07
2022-12-31T01:05:50.466Z,19.40
2022-12-31T01:08:57.099Z,18.80
2022-12-31T01:12:00.120Z,18.80
2022-12-31T01:15:03.218Z,18.50
2022-12-31T01:18:07.550Z,18.50
2022-12-31T01:21:12.314Z,19.77
2022-12-31T01:24:18.028Z,18.53
2022-12-31T01:27:21.071Z,19.30
2022-12-31T01:30:24.224Z,18.77
2022-12-31T01:33:27.267Z,19.37
2022-12-31T01:36:32.929Z,19.30
2022-12-31T01:39:37.376Z,18.50
2022-12-31T01:42:40.395Z,18.90
2022-12-31T01:45:44.695Z,17.17
2022-12-31T01:48:51.058Z,18.67
2022-12-31T01:51:58.825Z,19.30
2022-12-31T01:55:16.226Z,18.13
2022-12-31T01:58:23.400Z,18.50
2022-12-31T02:01:29.826Z,18.70
2022-12-31T02:04:33.051Z,18.60
2022-12-31T02:07:36.064Z,18.53
2022-12-31T02:10:40.659Z,17.90
2022-12-31T02:13:43.831Z,19.33
2022-12-31T02:16:53.779Z,18.17
2022-12-31T02:20:32.965Z,16.90
2022-12-31T02:24:19.477Z,17.03
2022-12-31T02:27:38.974Z,17.30
2022-12-31T02:30:46.754Z,17.27
2022-12-31T02:33:55.894Z,16.53
2022-12-31T02:37:00.734Z,15.60
2022-12-31T02:40:04.299Z,15.60
2022-12-31T02:43:07.509Z,16.10
2022-12-31T02:46:21.603Z,15.87
2022-12-31T02:49:28.483Z,15.93
2022-12-31T02:52:43.773Z,16.07
2022-12-31T02:55:54.704Z,16.13
2022-12-31T02:59:21.870Z,15.40
2022-12-31T03:02:31.404Z,15.60
2022-12-31T03:05:38.793Z,13.57
2022-12-31T03:08:57.640Z,14.70
2022-12-31T03:12:19.367Z,15.40
2022-12-31T03:15:25.070Z,14.70
2022-12-31T03:18:57.107Z,13.90
2022-12-31T03:22:17.472Z,13.97
2022-12-31T03:25:36.144Z,13.40
2022-12-31T03:28:41.198Z,13.73
2022-12-31T03:31:44.307Z,13.13
2022-12-31T03:34:48.800Z,12.50
2022-12-31T03:37:52.831Z,13.13
2022-12-31T03:40:55.903Z,12.90
2022-12-31T03:43:58.948Z,12.97
2022-12-31T03:47:01.987Z,12.40
2022-12-31T03:50:08.335Z,12.00
2022-12-31T03:53:11.827Z,11.03
2022-12-31T03:56:14.818Z,12.17
2022-12-31T03:59:17.855Z,11.40
2022-12-31T04:02:26.304Z,11.83
2022-12-31T04:05:33.758Z,11.43
2022-12-31T04:08:36.831Z,11.87
2022-12-31T04:11:39.780Z,11.63
2022-12-31T04:14:42.845Z,10.30
2022-12-31T04:17:46.030Z,10.87
2022-12-31T04:20:50.713Z,10.90
2022-12-31T04:23:53.977Z,11.03
2022-12-31T04:27:00.776Z,11.07
2022-12-31T04:30:07.974Z,10.10
2022-12-31T04:33:10.957Z,9.60
2022-12-31T04:36:15.410Z,10.50
2022-12-31T04:39:18.497Z,9.93
2022-12-31T04:42:21.607Z,11.17
2022-12-31T04:45:24.693Z,10.10
2022-12-31T04:48:27.888Z,9.83
2022-12-31T04:51:32.876Z,10.13
2022-12-31T04:54:35.924Z,10.40
2022-12-31T04:57:38.974Z,10.37
2022-12-31T05:00:42.120Z,11.53
2022-12-31T05:03:45.153Z,10.67
2022-12-31T05:06:49.846Z,10.10
2022-12-31T05:09:52.913Z,10.70
2022-12-31T05:12:55.954Z,10.00
2022-12-31T05:15:58.962Z,10.60
2022-12-31T05:19:02.052Z,11.37
2022-12-31T05:22:23.952Z,11.93
2022-12-31T05:25:27.437Z,11.27
2022-12-31T05:28:30.499Z,11.73
2022-12-31T05:31:33.476Z,11.47
2022-12-31T05:34:36.461Z,11.87
2022-12-31T05:37:40.904Z,11.57
2022-12-31T05:40:43.938Z,11.23
2022-12-31T05:43:47.357Z,11.57
2022-12-31T05:46:50.482Z,11.33
2022-12-31T05:49:53.493Z,12.50
2022-12-31T05:52:58.137Z,11.90
2022-12-31T05:56:01.247Z,11.70
2022-12-31T05:59:04.311Z,11.43
2022-12-31T06:02:07.671Z,11.90
2022-12-31T06:05:11.045Z,11.23
2022-12-31T06:08:15.626Z,12.40
2022-12-31T06:11:18.709Z,12.80
2022-12-31T06:14:21.943Z,11.87
2022-12-31T06:17:26.102Z,12.43
2022-12-31T06:20:29.092Z,10.83
2022-12-31T06:23:33.666Z,11.40
2022-12-31T06:26:36.783Z,12.50
2022-12-31T06:29:39.781Z,11.10
2022-12-31T06:32:42.907Z,11.27
2022-12-31T06:35:45.922Z,11.23
2022-12-31T06:38:50.405Z,10.87
2022-12-31T06:41:53.473Z,10.27
2022-12-31T06:44:56.421Z,10.93
2022-12-31T06:47:59.586Z,10.47
2022-12-31T06:51:07.798Z,10.43
2022-12-31T06:54:15.435Z,9.93
2022-12-31T06:57:18.990Z,10.87
2022-12-31T07:00:23.213Z,10.70
2022-12-31T07:03:33.873Z,10.27
2022-12-31T07:06:44.182Z,10.17
2022-12-31T07:09:56.980Z,9.60
2022-12-31T07:13:13.104Z,9.80
2022-12-31T07:16:26.894Z,11.03
2022-12-31T07:19:41.316Z,10.07
2022-12-31T07:22:45.270Z,11.30
2022-12-31T07:26:08.612Z,10.73
2022-12-31T07:29:19.839Z,10.30
2022-12-31T07:32:34.498Z,11.87
2022-12-31T07:35:49.761Z,11.80
2022-12-31T07:38:58.332Z,13.17
2022-12-31T07:42:10.500Z,13.20
2022-12-31T07:45:21.712Z,13.70
2022-12-31T07:48:29.002Z,14.40
2022-12-31T07:51:32.522Z,13.60
2022-12-31T07:54:35.556Z,13.13
2022-12-31T07:57:50.689Z,14.07
2022-12-31T08:00:56.997Z,14.53
2022-12-31T08:04:04.902Z,14.20
2022-12-31T08:07:17.391Z,16.97
2022-12-31T08:10:27.253Z,14.63
2022-12-31T08:13:32.733Z,14.43
2022-12-31T08:16:36.387Z,16.57
2022-12-31T08:19:40.054Z,14.87
2022-12-31T08:23:15.458Z,16.23
2022-12-31T08:26:27.374Z,15.83
2022-12-31T08:29:40.758Z,15.33
2022-12-31T08:32:50.229Z,17.93
2022-12-31T08:36:07.854Z,18.77
2022-12-31T08:39:23.028Z,18.47
2022-12-31T08:42:33.643Z,17.60
2022-12-31T08:45:40.834Z,21.30
2022-12-31T08:48:44.983Z,20.30
2022-12-31T08:51:48.481Z,18.80
2022-12-31T08:54:52.083Z,20.33
2022-12-31T08:58:08.407Z,20.30
2022-12-31T09:01:19.098Z,17.97
2022-12-31T09:04:30.506Z,18.77
2022-12-31T09:07:41.115Z,17.20
2022-12-31T09:10:52.940Z,17.30
2022-12-31T09:14:21.356Z,17.93
2022-12-31T09:17:44.055Z,18.43
2022-12-31T09:20:47.518Z,18.13
2022-12-31T09:23:50.943Z,17.80
2022-12-31T09:27:05.682Z,17.30
2022-12-31T09:30:12.662Z,19.17
2022-12-31T09:33:31.369Z,18.00
2022-12-31T09:36:41.191Z,18.87
2022-12-31T09:39:46.319Z,21.03
2022-12-31T09:43:10.771Z,21.47
2022-12-31T09:47:06.080Z,23.07
2022-12-31T09:50:50.679Z,24.13
2022-12-31T09:54:25.842Z,27.20
2022-12-31T09:57:39.354Z,26.27
2022-12-31T10:00:49.558Z,28.17
2022-12-31T10:04:31.255Z,30.10
2022-12-31T10:07:52.806Z,32.23
2022-12-31T10:11:00.721Z,33.00
2022-12-31T10:14:29.821Z,32.30
2022-12-31T10:17:48.241Z,30.47
2022-12-31T10:21:04.923Z,31.77
2022-12-31T10:24:35.845Z,34.60
2022-12-31T10:27:52.855Z,37.80
2022-12-31T10:31:08.012Z,44.67
2022-12-31T10:34:17.561Z,52.87
2022-12-31T10:37:23.439Z,61.20
2022-12-31T10:40:45.565Z,60.57
2022-12-31T10:44:22.411Z,54.87
2022-12-31T10:47:57.191Z,53.87
2022-12-31T10:51:31.069Z,54.17
2022-12-31T10:54:59.242Z,51.83
2022-12-31T10:58:47.085Z,50.87
2022-12-31T11:02:02.653Z,48.20
2022-12-31T11:05:44.229Z,46.93
2022-12-31T11:09:40.490Z,45.70
2022-12-31T11:13:11.710Z,45.23
2022-12-31T11:16:32.624Z,41.80
2022-12-31T11:19:45.365Z,42.43
2022-12-31T11:22:59.860Z,41.50
2022-12-31T11:26:14.570Z,41.17
2022-12-31T11:29:38.129Z,42.60
2022-12-31T11:33:02.139Z,40.73
2022-12-31T11:36:18.087Z,37.63
2022-12-31T11:39:36.282Z,39.80
2022-12-31T11:42:47.432Z,39.80
2022-12-31T11:46:14.442Z,38.67
2022-12-31T11:49:34.543Z,40.00
2022-12-31T11:52:54.073Z,40.80
2022-12-31T11:56:11.051Z,38.67
2022-12-31T11:59:19.611Z,36.47
2022-12-31T12:02:27.622Z,37.87
2022-12-31T12:05:33.096Z,35.07
2022-12-31T12:08:36.954Z,34.20
2022-12-31T12:11:41.173Z,33.63
2022-12-31T12:14:47.019Z,32.10
2022-12-31T12:17:55.301Z,30.97
2022-12-31T12:21:12.258Z,32.13
2022-12-31T12:24:21.959Z,32.47
2022-12-31T12:27:31.914Z,29.47
2022-12-31T12:30:41.452Z,31.33
2022-12-31T12:33:47.761Z,27.47
2022-12-31T12:36:52.243Z,26.80
2022-12-31T12:40:01.051Z,24.37
2022-12-31T12:43:04.629Z,25.73
2022-12-31T12:46:19.675Z,23.67
2022-12-31T12:49:26.905Z,22.50
2022-12-31T12:52:46.874Z,22.50
2022-12-31T12:56:00.881Z,22.67
2022-12-31T12:59:27.776Z,22.37
2022-12-31T13:03:21.160Z,22.87
2022-12-31T13:06:38.099Z,22.47
2022-12-31T13:09:56.520Z,21.30
2022-12-31T13:13:23.883Z,21.33
2022-12-31T13:16:35.993Z,20.20
2022-12-31T13:19:46.303Z,19.77
2022-12-31T13:22:57.569Z,19.93
2022-12-31T13:26:08.713Z,18.10
2022-12-31T13:29:18.576Z,19.20
2022-12-31T13:32:26.315Z,17.10
2022-12-31T13:35:32.340Z,17.20
2022-12-31T13:38:39.955Z,16.03
2022-12-31T13:41:50.829Z,15.80
2022-12-31T13:45:00.556Z,17.03
2022-12-31T13:48:08.732Z,17.03
2022-12-31T13:51:17.381Z,16.00
2022-12-31T13:54:31.660Z,16.13
2022-12-31T13:57:44.945Z,15.30
2022-12-31T14:00:54.489Z,14.37
2022-12-31T14:04:05.880Z,14.40
2022-12-31T14:07:14.884Z,15.23
2022-12-31T14:10:21.875Z,14.00
2022-12-31T14:13:38.917Z,14.40
2022-12-31T14:16:49.715Z,14.40
2022-12-31T14:20:03.823Z,14.07
2022-12-31T14:23:19.266Z,13.23
2022-12-31T14:26:27.667Z,13.57
2022-12-31T14:29:36.643Z,14.40
2022-12-31T14:33:10.855Z,13.33
2022-12-31T14:36:27.423Z,13.13
2022-12-31T14:39:45.262Z,14.37
2022-12-31T14:43:05.636Z,13.93
2022-12-31T14:46:19.750Z,14.30
2022-12-31T14:49:38.161Z,14.50
2022-12-31T14:52:51.813Z,16.00
2022-12-31T14:55:59.728Z,15.20
2022-12-31T14:59:03.946Z,14.97
2022-12-31T15:02:29.350Z,16.23
2022-12-31T15:05:34.071Z,20.87
2022-12-31T15:08:47.890Z,22.67
2022-12-31T15:12:12.375Z,24.50
2022-12-31T15:15:33.420Z,23.33
2022-12-31T15:19:15.301Z,23.90
2022-12-31T15:22:37.625Z,22.27
2022-12-31T15:25:47.413Z,21.47
2022-12-31T15:28:59.533Z,22.90
2022-12-31T15:32:05.246Z,23.33
2022-12-31T15:35:30.800Z,22.83
2022-12-31T15:38:37.583Z,23.47
2022-12-31T15:42:10.468Z,23.13
2022-12-31T15:45:13.557Z,22.60
2022-12-31T15:48:22.200Z,21.23
2022-12-31T15:51:31.772Z,19.90
2022-12-31T15:54:39.613Z,19.43
2022-12-31T15:57:44.468Z,19.47
2022-12-31T16:01:02.581Z,18.93
2022-12-31T16:04:07.387Z,17.67
2022-12-31T16:07:13.518Z,18.30
2022-12-31T16:10:22.819Z,16.97
2022-12-31T16:13:28.480Z,17.20
2022-12-31T16:16:33.477Z,17.57
2022-12-31T16:19:54.282Z,20.30
2022-12-31T16:23:01.911Z,25.57
2022-12-31T16:26:05.517Z,48.17
2022-12-31T16:29:15.105Z,82.10
2022-12-31T16:32:20.001Z,94.60
2022-12-31T16:35:25.744Z,68.13
2022-12-31T16:38:35.603Z,79.37
2022-12-31T16:41:43.935Z,89.03
2022-12-31T16:44:47.416Z,87.63
2022-12-31T16:47:50.605Z,84.00
2022-12-31T16:50:56.894Z,85.00
2022-12-31T16:54:03.744Z,80.63
2022-12-31T16:57:10.980Z,79.40
2022-12-31T17:00:20.874Z,74.97
2022-12-31T17:03:26.494Z,68.17
2022-12-31T17:06:33.855Z,67.77
2022-12-31T17:09:39.838Z,66.87
2022-12-31T17:13:25.575Z,58.73
2022-12-31T17:16:10.297Z,51.93
2022-12-31T17:19:36.623Z,45.57
2022-12-31T17:22:44.265Z,46.30
2022-12-31T17:25:48.844Z,42.63
2022-12-31T17:28:55.415Z,41.13
2022-12-31T17:32:05.487Z,38.33
2022-12-31T17:35:29.351Z,36.43
2022-12-31T17:38:34.494Z,36.30
2022-12-31T17:41:39.466Z,34.47
2022-12-31T17:44:45.502Z,34.57
2022-12-31T17:47:51.200Z,33.30
2022-12-31T17:50:56.028Z,32.50
2022-12-31T17:54:01.469Z,33.30
2022-12-31T17:57:06.666Z,31.03
2022-12-31T18:00:19.213Z,30.20
2022-12-31T18:03:22.627Z,30.10
2022-12-31T18:06:26.763Z,28.43
2022-12-31T18:09:29.976Z,28.60
2022-12-31T18:12:34.719Z,28.43
2022-12-31T18:15:38.608Z,26.10
2022-12-31T18:18:45.519Z,24.03
2022-12-31T18:21:48.983Z,23.17
2022-12-31T18:24:54.688Z,21.93
2022-12-31T18:28:00.640Z,20.07
2022-12-31T18:31:04.450Z,20.00
2022-12-31T18:34:07.709Z,18.27
2022-12-31T18:37:18.028Z,18.77
2022-12-31T18:40:24.821Z,17.70
2022-12-31T18:43:29.608Z,17.13
2022-12-31T18:46:32.831Z,16.47
2022-12-31T18:49:36.177Z,15.83
2022-12-31T18:52:41.237Z,14.83
2022-12-31T18:55:49.183Z,15.10
2022-12-31T18:58:54.078Z,14.20
2022-12-31T19:01:57.739Z,13.87
2022-12-31T19:05:01.032Z,12.03
2022-12-31T19:08:04.429Z,12.47
2022-12-31T19:11:07.859Z,11.93
2022-12-31T19:14:16.343Z,10.83
2022-12-31T19:17:21.631Z,11.07
2022-12-31T19:20:25.008Z,10.30
2022-12-31T19:23:28.387Z,10.60
2022-12-31T19:26:31.613Z,11.10
2022-12-31T19:29:36.236Z,10.27
2022-12-31T19:32:39.651Z,10.20
2022-12-31T19:35:43.245Z,10.93
2022-12-31T19:38:46.991Z,10.97
2022-12-31T19:41:56.475Z,10.10
2022-12-31T19:45:06.973Z,10.40
2022-12-31T19:48:13.076Z,10.60
2022-12-31T19:51:19.081Z,10.43
2022-12-31T19:54:22.345Z,11.10
2022-12-31T19:57:25.459Z,11.10
2022-12-31T20:00:31.877Z,10.50
2022-12-31T20:03:35.615Z,10.20
2022-12-31T20:06:39.070Z,9.97
2022-12-31T20:09:42.467Z,10.30
2022-12-31T20:12:45.632Z,9.60
2022-12-31T20:15:50.223Z,10.90
2022-12-31T20:18:53.959Z,11.10
2022-12-31T20:21:57.496Z,11.03
2022-12-31T20:25:00.839Z,11.60
2022-12-31T20:28:04.318Z,11.87
2022-12-31T20:31:10.289Z,12.03
2022-12-31T20:34:13.766Z,11.17
2022-12-31T20:37:17.218Z,11.00
2022-12-31T20:40:20.495Z,11.83
2022-12-31T20:43:23.936Z,11.50
2022-12-31T20:46:30.923Z,11.80
2022-12-31T20:50:09.286Z,11.60
2022-12-31T20:52:57.816Z,11.83
2022-12-31T20:56:05.457Z,11.27
2022-12-31T20:59:10.232Z,11.00
2022-12-31T21:02:21.272Z,15.70
2022-12-31T21:05:25.664Z,13.03
2022-12-31T21:08:34.528Z,13.37
2022-12-31T21:11:55.872Z,14.47
2022-12-31T21:14:59.187Z,14.10
2022-12-31T21:18:04.069Z,15.17
2022-12-31T21:21:07.415Z,13.80
2022-12-31T21:24:10.939Z,14.37
2022-12-31T21:27:14.345Z,15.73
2022-12-31T21:30:19.323Z,15.50
2022-12-31T21:33:24.657Z,14.53
2022-12-31T21:36:27.912Z,15.40
2022-12-31T21:39:31.002Z,15.67
2022-12-31T21:42:34.490Z,16.37
2022-12-31T21:45:37.944Z,15.73
2022-12-31T21:48:42.657Z,15.50
2022-12-31T21:52:14.952Z,15.53
2022-12-31T21:55:35.410Z,16.43
2022-12-31T21:58:39.708Z,16.43
2022-12-31T22:02:00.582Z,14.80
2022-12-31T22:05:16.391Z,61.47
2022-12-31T22:08:24.352Z,106.23
2022-12-31T22:11:28.855Z,53.10
2022-12-31T22:14:31.857Z,49.90
2022-12-31T22:17:34.935Z,51.57
2022-12-31T22:20:41.498Z,53.40
2022-12-31T22:23:45.021Z,50.20
2022-12-31T22:26:48.514Z,51.43
2022-12-31T22:29:51.822Z,51.60
2022-12-31T22:32:55.079Z,50.27
2022-12-31T22:36:01.588Z,51.63
2022-12-31T22:39:05.053Z,51.90
2022-12-31T22:42:08.151Z,51.33
2022-12-31T22:45:12.255Z,49.87
2022-12-31T22:48:15.471Z,49.40
2022-12-31T22:51:20.742Z,49.97
2022-12-31T22:54:24.136Z,47.43
2022-12-31T22:57:27.497Z,48.00
2022-12-31T23:00:41.827Z,46.50
2022-12-31T23:03:45.498Z,46.97
2022-12-31T23:06:49.983Z,46.07
2022-12-31T23:10:10.402Z,44.03
2022-12-31T23:13:31.559Z,45.50
2022-12-31T23:16:52.080Z,43.93
2022-12-31T23:20:12.895Z,41.37
2022-12-31T23:23:17.961Z,41.07
2022-12-31T23:26:21.462Z,41.03
2022-12-31T23:29:24.895Z,38.77
2022-12-31T23:32:27.949Z,38.80
2022-12-31T23:35:31.191Z,38.47
2022-12-31T23:38:36.023Z,38.43
2022-12-31T23:41:39.349Z,36.00
2022-12-31T23:44:44.530Z,35.37
2022-12-31T23:47:47.927Z,35.70
2022-12-31T23:50:54.121Z,35.63
2022-12-31T23:53:59.400Z,34.47
2022-12-31T23:57:02.564Z,33.87
